sensor_id;sensor_type;location;lat;lon;timestamp;P1;durP1;ratioP1;P2;durP2;ratioP2
72924;SDS011;61070;50.794;7.054;2023-01-26T00:01:48;65.43;;;21.38;;
72924;SDS011;61070;50.794;7.054;2023-01-26T00:04:14;75.20;;;22.92;;
72924;SDS011;61070;50.794;7.054;2023-01-26T00:06:39;68.35;;;22.27;;
72924;SDS011;61070;50.794;7.054;2023-01-26T00:09:04;66.90;;;23.05;;
72924;SDS011;61070;50.794;7.054;2023-01-26T00:11:30;74.55;;;25.33;;
72924;SDS011;61070;50.794;7.054;2023-01-26T00:13:56;81.28;;;25.30;;
72924;SDS011;61070;50.794;7.054;2023-01-26T00:16:23;76.07;;;26.23;;
72924;SDS011;61070;50.794;7.054;2023-01-26T00:18:48;72.47;;;24.92;;
72924;SDS011;61070;50.794;7.054;2023-01-26T00:21:15;79.28;;;22.95;;
72924;SDS011;61070;50.794;7.054;2023-01-26T00:23:42;69.40;;;24.15;;
72924;SDS011;61070;50.794;7.054;2023-01-26T00:26:08;67.82;;;23.33;;
72924;SDS011;61070;50.794;7.054;2023-01-26T00:28:37;73.35;;;24.23;;
72924;SDS011;61070;50.794;7.054;2023-01-26T00:31:03;81.97;;;24.05;;
72924;SDS011;61070;50.794;7.054;2023-01-26T00:33:32;67.38;;;24.25;;
72924;SDS011;61070;50.794;7.054;2023-01-26T00:35:58;70.18;;;21.80;;
72924;SDS011;61070;50.794;7.054;2023-01-26T00:38:24;70.18;;;21.52;;
72924;SDS011;61070;50.794;7.054;2023-01-26T00:40:49;79.68;;;24.00;;
72924;SDS011;61070;50.794;7.054;2023-01-26T00:43:14;73.43;;;22.52;;
72924;SDS011;61070;50.794;7.054;2023-01-26T00:45:40;76.40;;;24.70;;
72924;SDS011;61070;50.794;7.054;2023-01-26T00:48:05;75.10;;;24.00;;
72924;SDS011;61070;50.794;7.054;2023-01-26T00:50:31;62.70;;;22.33;;
72924;SDS011;61070;50.794;7.054;2023-01-26T00:52:57;67.68;;;21.55;;
72924;SDS011;61070;50.794;7.054;2023-01-26T00:55:22;73.63;;;22.95;;
72924;SDS011;61070;50.794;7.054;2023-01-26T00:57:48;71.10;;;23.50;;
72924;SDS011;61070;50.794;7.054;2023-01-26T01:00:14;70.15;;;22.63;;
72924;SDS011;61070;50.794;7.054;2023-01-26T01:02:44;82.03;;;23.98;;
72924;SDS011;61070;50.794;7.054;2023-01-26T01:05:09;67.47;;;20.23;;
72924;SDS011;61070;50.794;7.054;2023-01-26T01:07:35;66.40;;;22.27;;
72924;SDS011;61070;50.794;7.054;2023-01-26T01:10:00;69.03;;;23.13;;
72924;SDS011;61070;50.794;7.054;2023-01-26T01:12:26;62.00;;;21.95;;
72924;SDS011;61070;50.794;7.054;2023-01-26T01:14:52;66.38;;;22.65;;
72924;SDS011;61070;50.794;7.054;2023-01-26T01:17:17;64.60;;;21.63;;
72924;SDS011;61070;50.794;7.054;2023-01-26T01:19:42;70.47;;;23.63;;
72924;SDS011;61070;50.794;7.054;2023-01-26T01:22:08;59.47;;;21.80;;
72924;SDS011;61070;50.794;7.054;2023-01-26T01:24:33;63.22;;;21.85;;
72924;SDS011;61070;50.794;7.054;2023-01-26T01:26:59;69.22;;;21.77;;
72924;SDS011;61070;50.794;7.054;2023-01-26T01:29:25;61.08;;;22.77;;
72924;SDS011;61070;50.794;7.054;2023-01-26T01:31:50;60.53;;;23.30;;
72924;SDS011;61070;50.794;7.054;2023-01-26T01:34:15;64.95;;;21.50;;
72924;SDS011;61070;50.794;7.054;2023-01-26T01:36:41;62.47;;;20.77;;
72924;SDS011;61070;50.794;7.054;2023-01-26T01:39:06;63.10;;;22.13;;
72924;SDS011;61070;50.794;7.054;2023-01-26T01:41:31;68.07;;;23.20;;
72924;SDS011;61070;50.794;7.054;2023-01-26T01:44:10;66.57;;;22.58;;
72924;SDS011;61070;50.794;7.054;2023-01-26T01:46:44;79.20;;;24.23;;
72924;SDS011;61070;50.794;7.054;2023-01-26T01:49:24;57.50;;;22.42;;
72924;SDS011;61070;50.794;7.054;2023-01-26T01:54:25;65.97;;;22.87;;
72924;SDS011;61070;50.794;7.054;2023-01-26T01:56:55;56.65;;;21.70;;
72924;SDS011;61070;50.794;7.054;2023-01-26T02:01:49;51.63;;;21.73;;
72924;SDS011;61070;50.794;7.054;2023-01-26T02:04:16;62.45;;;22.17;;
72924;SDS011;61070;50.794;7.054;2023-01-26T02:06:50;55.40;;;22.52;;
72924;SDS011;61070;50.794;7.054;2023-01-26T02:09:19;63.60;;;21.83;;
72924;SDS011;61070;50.794;7.054;2023-01-26T02:14:35;59.55;;;21.90;;
72924;SDS011;61070;50.794;7.054;2023-01-26T02:17:00;60.20;;;21.85;;
72924;SDS011;61070;50.794;7.054;2023-01-26T02:19:37;74.65;;;23.30;;
72924;SDS011;61070;50.794;7.054;2023-01-26T02:22:47;57.85;;;22.10;;
72924;SDS011;61070;50.794;7.054;2023-01-26T02:25:20;66.57;;;22.20;;
72924;SDS011;61070;50.794;7.054;2023-01-26T02:28:02;62.70;;;21.88;;
72924;SDS011;61070;50.794;7.054;2023-01-26T02:30:28;71.68;;;24.55;;
72924;SDS011;61070;50.794;7.054;2023-01-26T02:32:53;62.70;;;22.42;;
72924;SDS011;61070;50.794;7.054;2023-01-26T02:35:19;57.67;;;20.20;;
72924;SDS011;61070;50.794;7.054;2023-01-26T02:37:44;60.85;;;21.73;;
72924;SDS011;61070;50.794;7.054;2023-01-26T02:40:20;56.67;;;21.73;;
72924;SDS011;61070;50.794;7.054;2023-01-26T02:42:53;58.88;;;21.33;;
72924;SDS011;61070;50.794;7.054;2023-01-26T02:45:19;64.85;;;22.70;;
72924;SDS011;61070;50.794;7.054;2023-01-26T02:47:45;63.22;;;22.35;;
72924;SDS011;61070;50.794;7.054;2023-01-26T02:50:11;65.75;;;21.92;;
72924;SDS011;61070;50.794;7.054;2023-01-26T02:52:37;56.85;;;20.05;;
72924;SDS011;61070;50.794;7.054;2023-01-26T02:55:03;59.05;;;22.30;;
72924;SDS011;61070;50.794;7.054;2023-01-26T02:57:49;51.38;;;19.55;;
72924;SDS011;61070;50.794;7.054;2023-01-26T03:00:20;56.92;;;20.45;;
72924;SDS011;61070;50.794;7.054;2023-01-26T03:02:51;61.92;;;22.13;;
72924;SDS011;61070;50.794;7.054;2023-01-26T03:05:18;57.55;;;19.13;;
72924;SDS011;61070;50.794;7.054;2023-01-26T03:07:44;51.22;;;18.42;;
72924;SDS011;61070;50.794;7.054;2023-01-26T03:10:10;61.33;;;20.85;;
72924;SDS011;61070;50.794;7.054;2023-01-26T03:12:35;60.50;;;21.05;;
72924;SDS011;61070;50.794;7.054;2023-01-26T03:15:01;54.35;;;21.05;;
72924;SDS011;61070;50.794;7.054;2023-01-26T03:17:45;55.50;;;20.98;;
72924;SDS011;61070;50.794;7.054;2023-01-26T03:20:10;60.25;;;21.25;;
72924;SDS011;61070;50.794;7.054;2023-01-26T03:22:54;52.03;;;20.05;;
72924;SDS011;61070;50.794;7.054;2023-01-26T03:25:38;50.22;;;19.70;;
72924;SDS011;61070;50.794;7.054;2023-01-26T03:28:22;59.58;;;18.98;;
72924;SDS011;61070;50.794;7.054;2023-01-26T03:30:48;60.92;;;20.20;;
72924;SDS011;61070;50.794;7.054;2023-01-26T03:33:18;56.80;;;19.85;;
72924;SDS011;61070;50.794;7.054;2023-01-26T03:35:44;44.72;;;18.65;;
72924;SDS011;61070;50.794;7.054;2023-01-26T03:38:10;43.75;;;17.15;;
72924;SDS011;61070;50.794;7.054;2023-01-26T03:40:36;51.45;;;20.33;;
72924;SDS011;61070;50.794;7.054;2023-01-26T03:43:19;61.00;;;19.17;;
72924;SDS011;61070;50.794;7.054;2023-01-26T03:46:04;47.85;;;17.98;;
72924;SDS011;61070;50.794;7.054;2023-01-26T03:48:49;52.25;;;18.60;;
72924;SDS011;61070;50.794;7.054;2023-01-26T03:51:33;43.50;;;17.00;;
72924;SDS011;61070;50.794;7.054;2023-01-26T03:54:17;53.22;;;18.92;;
72924;SDS011;61070;50.794;7.054;2023-01-26T03:57:01;50.95;;;19.40;;
72924;SDS011;61070;50.794;7.054;2023-01-26T03:59:27;50.67;;;19.05;;
72924;SDS011;61070;50.794;7.054;2023-01-26T04:02:05;54.92;;;19.17;;
72924;SDS011;61070;50.794;7.054;2023-01-26T04:04:51;51.20;;;19.15;;
72924;SDS011;61070;50.794;7.054;2023-01-26T04:07:35;48.53;;;18.58;;
72924;SDS011;61070;50.794;7.054;2023-01-26T04:10:19;49.35;;;18.67;;
72924;SDS011;61070;50.794;7.054;2023-01-26T04:12:45;46.67;;;18.85;;
72924;SDS011;61070;50.794;7.054;2023-01-26T04:15:29;55.15;;;19.23;;
72924;SDS011;61070;50.794;7.054;2023-01-26T04:18:13;57.80;;;20.20;;
72924;SDS011;61070;50.794;7.054;2023-01-26T04:20:57;55.88;;;19.40;;
72924;SDS011;61070;50.794;7.054;2023-01-26T04:23:40;45.38;;;19.15;;
72924;SDS011;61070;50.794;7.054;2023-01-26T04:26:06;54.70;;;21.15;;
72924;SDS011;61070;50.794;7.054;2023-01-26T04:28:31;50.42;;;18.27;;
72924;SDS011;61070;50.794;7.054;2023-01-26T04:30:56;48.85;;;18.13;;
72924;SDS011;61070;50.794;7.054;2023-01-26T04:33:21;49.63;;;17.35;;
72924;SDS011;61070;50.794;7.054;2023-01-26T04:35:47;56.85;;;18.10;;
72924;SDS011;61070;50.794;7.054;2023-01-26T04:38:12;57.22;;;19.23;;
72924;SDS011;61070;50.794;7.054;2023-01-26T04:40:37;65.60;;;21.38;;
72924;SDS011;61070;50.794;7.054;2023-01-26T04:43:02;57.25;;;18.23;;
72924;SDS011;61070;50.794;7.054;2023-01-26T04:45:28;57.13;;;19.15;;
72924;SDS011;61070;50.794;7.054;2023-01-26T04:47:53;54.90;;;20.45;;
72924;SDS011;61070;50.794;7.054;2023-01-26T04:50:18;49.25;;;18.13;;
72924;SDS011;61070;50.794;7.054;2023-01-26T04:52:44;49.22;;;18.35;;
72924;SDS011;61070;50.794;7.054;2023-01-26T04:55:09;55.80;;;19.52;;
72924;SDS011;61070;50.794;7.054;2023-01-26T04:57:34;51.33;;;17.10;;
72924;SDS011;61070;50.794;7.054;2023-01-26T05:00:00;58.10;;;18.75;;
72924;SDS011;61070;50.794;7.054;2023-01-26T05:02:25;48.22;;;18.00;;
72924;SDS011;61070;50.794;7.054;2023-01-26T05:04:50;57.00;;;20.05;;
72924;SDS011;61070;50.794;7.054;2023-01-26T05:07:15;55.45;;;19.23;;
72924;SDS011;61070;50.794;7.054;2023-01-26T05:09:41;55.08;;;18.65;;
72924;SDS011;61070;50.794;7.054;2023-01-26T05:12:06;57.80;;;19.13;;
72924;SDS011;61070;50.794;7.054;2023-01-26T05:14:50;54.38;;;19.20;;
72924;SDS011;61070;50.794;7.054;2023-01-26T05:17:15;51.78;;;18.92;;
72924;SDS011;61070;50.794;7.054;2023-01-26T05:19:40;50.30;;;18.40;;
72924;SDS011;61070;50.794;7.054;2023-01-26T05:22:06;44.88;;;18.50;;
72924;SDS011;61070;50.794;7.054;2023-01-26T05:24:31;57.53;;;18.90;;
72924;SDS011;61070;50.794;7.054;2023-01-26T05:26:56;55.58;;;19.10;;
72924;SDS011;61070;50.794;7.054;2023-01-26T05:29:41;48.40;;;17.92;;
72924;SDS011;61070;50.794;7.054;2023-01-26T05:32:07;51.00;;;19.52;;
72924;SDS011;61070;50.794;7.054;2023-01-26T05:34:32;57.75;;;20.10;;
72924;SDS011;61070;50.794;7.054;2023-01-26T05:36:57;50.22;;;19.30;;
72924;SDS011;61070;50.794;7.054;2023-01-26T05:39:22;51.92;;;18.52;;
72924;SDS011;61070;50.794;7.054;2023-01-26T05:41:48;56.50;;;19.42;;
72924;SDS011;61070;50.794;7.054;2023-01-26T05:44:13;54.13;;;17.90;;
72924;SDS011;61070;50.794;7.054;2023-01-26T05:46:38;61.13;;;21.48;;
72924;SDS011;61070;50.794;7.054;2023-01-26T05:49:04;47.75;;;18.50;;
72924;SDS011;61070;50.794;7.054;2023-01-26T05:51:29;55.90;;;20.10;;
72924;SDS011;61070;50.794;7.054;2023-01-26T05:53:54;56.88;;;21.17;;
72924;SDS011;61070;50.794;7.054;2023-01-26T05:56:19;60.78;;;20.90;;
72924;SDS011;61070;50.794;7.054;2023-01-26T05:58:45;64.88;;;21.25;;
72924;SDS011;61070;50.794;7.054;2023-01-26T06:01:10;61.88;;;21.48;;
72924;SDS011;61070;50.794;7.054;2023-01-26T06:03:35;60.15;;;21.88;;
72924;SDS011;61070;50.794;7.054;2023-01-26T06:06:00;54.05;;;19.17;;
72924;SDS011;61070;50.794;7.054;2023-01-26T06:08:26;55.22;;;19.95;;
72924;SDS011;61070;50.794;7.054;2023-01-26T06:10:51;58.60;;;19.33;;
72924;SDS011;61070;50.794;7.054;2023-01-26T06:13:22;52.75;;;18.65;;
72924;SDS011;61070;50.794;7.054;2023-01-26T06:15:47;51.78;;;18.80;;
72924;SDS011;61070;50.794;7.054;2023-01-26T06:18:12;50.00;;;18.65;;
72924;SDS011;61070;50.794;7.054;2023-01-26T06:20:37;61.47;;;21.13;;
72924;SDS011;61070;50.794;7.054;2023-01-26T06:23:03;48.78;;;17.88;;
72924;SDS011;61070;50.794;7.054;2023-01-26T06:25:29;53.45;;;17.25;;
72924;SDS011;61070;50.794;7.054;2023-01-26T06:27:57;51.03;;;20.25;;
72924;SDS011;61070;50.794;7.054;2023-01-26T06:30:23;53.47;;;17.25;;
72924;SDS011;61070;50.794;7.054;2023-01-26T06:32:48;57.15;;;21.15;;
72924;SDS011;61070;50.794;7.054;2023-01-26T06:35:13;63.30;;;20.90;;
72924;SDS011;61070;50.794;7.054;2023-01-26T06:37:38;50.05;;;18.15;;
72924;SDS011;61070;50.794;7.054;2023-01-26T06:40:04;47.53;;;18.42;;
72924;SDS011;61070;50.794;7.054;2023-01-26T06:42:30;54.88;;;20.17;;
72924;SDS011;61070;50.794;7.054;2023-01-26T06:44:55;52.92;;;19.80;;
72924;SDS011;61070;50.794;7.054;2023-01-26T06:47:22;58.05;;;19.98;;
72924;SDS011;61070;50.794;7.054;2023-01-26T06:49:48;60.92;;;22.13;;
72924;SDS011;61070;50.794;7.054;2023-01-26T06:52:34;47.75;;;17.83;;
72924;SDS011;61070;50.794;7.054;2023-01-26T06:54:59;62.35;;;20.33;;
72924;SDS011;61070;50.794;7.054;2023-01-26T06:57:26;57.10;;;19.30;;
72924;SDS011;61070;50.794;7.054;2023-01-26T06:59:52;54.92;;;20.63;;
72924;SDS011;61070;50.794;7.054;2023-01-26T07:02:18;52.88;;;19.92;;
72924;SDS011;61070;50.794;7.054;2023-01-26T07:04:45;56.92;;;20.00;;
72924;SDS011;61070;50.794;7.054;2023-01-26T07:07:11;54.58;;;19.60;;
72924;SDS011;61070;50.794;7.054;2023-01-26T07:09:37;54.45;;;19.83;;
72924;SDS011;61070;50.794;7.054;2023-01-26T07:12:02;52.42;;;20.50;;
72924;SDS011;61070;50.794;7.054;2023-01-26T07:14:28;53.80;;;18.92;;
72924;SDS011;61070;50.794;7.054;2023-01-26T07:16:55;50.70;;;19.00;;
72924;SDS011;61070;50.794;7.054;2023-01-26T07:19:20;51.25;;;19.40;;
72924;SDS011;61070;50.794;7.054;2023-01-26T07:21:46;57.00;;;20.40;;
72924;SDS011;61070;50.794;7.054;2023-01-26T07:24:12;62.80;;;25.15;;
72924;SDS011;61070;50.794;7.054;2023-01-26T07:26:37;50.15;;;19.25;;
72924;SDS011;61070;50.794;7.054;2023-01-26T07:29:03;54.80;;;20.90;;
72924;SDS011;61070;50.794;7.054;2023-01-26T07:31:28;56.28;;;19.58;;
72924;SDS011;61070;50.794;7.054;2023-01-26T07:33:53;55.67;;;21.30;;
72924;SDS011;61070;50.794;7.054;2023-01-26T07:36:19;47.72;;;18.77;;
72924;SDS011;61070;50.794;7.054;2023-01-26T07:38:44;47.40;;;17.98;;
72924;SDS011;61070;50.794;7.054;2023-01-26T07:41:10;54.40;;;19.85;;
72924;SDS011;61070;50.794;7.054;2023-01-26T07:43:36;49.95;;;18.95;;
72924;SDS011;61070;50.794;7.054;2023-01-26T07:46:02;57.20;;;22.15;;
72924;SDS011;61070;50.794;7.054;2023-01-26T07:48:29;49.83;;;19.20;;
72924;SDS011;61070;50.794;7.054;2023-01-26T07:50:57;56.92;;;21.52;;
72924;SDS011;61070;50.794;7.054;2023-01-26T07:53:24;58.38;;;21.67;;
72924;SDS011;61070;50.794;7.054;2023-01-26T07:55:51;57.92;;;22.08;;
72924;SDS011;61070;50.794;7.054;2023-01-26T07:58:17;57.70;;;21.58;;
72924;SDS011;61070;50.794;7.054;2023-01-26T08:00:42;63.28;;;23.08;;
72924;SDS011;61070;50.794;7.054;2023-01-26T08:03:11;66.90;;;21.65;;
72924;SDS011;61070;50.794;7.054;2023-01-26T08:05:37;66.35;;;22.90;;
72924;SDS011;61070;50.794;7.054;2023-01-26T08:08:02;58.47;;;21.35;;
72924;SDS011;61070;50.794;7.054;2023-01-26T08:10:28;64.00;;;20.92;;
72924;SDS011;61070;50.794;7.054;2023-01-26T08:12:55;63.55;;;22.85;;
72924;SDS011;61070;50.794;7.054;2023-01-26T08:15:23;64.60;;;22.00;;
72924;SDS011;61070;50.794;7.054;2023-01-26T08:17:48;65.55;;;23.42;;
72924;SDS011;61070;50.794;7.054;2023-01-26T08:20:14;62.45;;;22.00;;
72924;SDS011;61070;50.794;7.054;2023-01-26T08:22:39;62.80;;;22.95;;
72924;SDS011;61070;50.794;7.054;2023-01-26T08:25:05;67.60;;;24.08;;
72924;SDS011;61070;50.794;7.054;2023-01-26T08:27:30;67.68;;;22.25;;
72924;SDS011;61070;50.794;7.054;2023-01-26T08:29:56;68.20;;;22.20;;
72924;SDS011;61070;50.794;7.054;2023-01-26T08:32:21;65.80;;;22.33;;
72924;SDS011;61070;50.794;7.054;2023-01-26T08:34:46;59.97;;;22.15;;
72924;SDS011;61070;50.794;7.054;2023-01-26T08:37:11;66.43;;;23.38;;
72924;SDS011;61070;50.794;7.054;2023-01-26T08:39:37;67.45;;;23.65;;
72924;SDS011;61070;50.794;7.054;2023-01-26T08:42:02;74.40;;;22.15;;
72924;SDS011;61070;50.794;7.054;2023-01-26T08:44:27;65.68;;;23.27;;
72924;SDS011;61070;50.794;7.054;2023-01-26T08:46:52;62.08;;;22.38;;
72924;SDS011;61070;50.794;7.054;2023-01-26T08:49:18;58.03;;;21.23;;
72924;SDS011;61070;50.794;7.054;2023-01-26T08:51:43;69.40;;;24.02;;
72924;SDS011;61070;50.794;7.054;2023-01-26T08:54:08;61.47;;;22.33;;
72924;SDS011;61070;50.794;7.054;2023-01-26T08:56:34;67.25;;;24.60;;
72924;SDS011;61070;50.794;7.054;2023-01-26T08:58:59;78.53;;;24.20;;
72924;SDS011;61070;50.794;7.054;2023-01-26T09:01:24;63.53;;;23.15;;
72924;SDS011;61070;50.794;7.054;2023-01-26T09:03:50;62.70;;;22.48;;
72924;SDS011;61070;50.794;7.054;2023-01-26T09:06:16;71.95;;;27.75;;
72924;SDS011;61070;50.794;7.054;2023-01-26T09:08:43;90.13;;;27.08;;
72924;SDS011;61070;50.794;7.054;2023-01-26T09:11:09;112.70;;;34.58;;
72924;SDS011;61070;50.794;7.054;2023-01-26T09:13:35;117.47;;;36.22;;
72924;SDS011;61070;50.794;7.054;2023-01-26T09:16:09;87.90;;;28.42;;
72924;SDS011;61070;50.794;7.054;2023-01-26T09:18:39;87.10;;;28.63;;
72924;SDS011;61070;50.794;7.054;2023-01-26T09:21:05;81.22;;;29.98;;
72924;SDS011;61070;50.794;7.054;2023-01-26T09:23:32;74.90;;;25.50;;
72924;SDS011;61070;50.794;7.054;2023-01-26T09:25:58;60.03;;;24.10;;
72924;SDS011;61070;50.794;7.054;2023-01-26T09:28:23;67.63;;;23.98;;
72924;SDS011;61070;50.794;7.054;2023-01-26T09:30:49;67.20;;;24.25;;
72924;SDS011;61070;50.794;7.054;2023-01-26T09:33:14;61.75;;;23.42;;
72924;SDS011;61070;50.794;7.054;2023-01-26T09:35:39;76.22;;;24.67;;
72924;SDS011;61070;50.794;7.054;2023-01-26T09:38:04;62.97;;;23.30;;
72924;SDS011;61070;50.794;7.054;2023-01-26T09:40:44;70.32;;;24.48;;
72924;SDS011;61070;50.794;7.054;2023-01-26T09:43:22;49.25;;;17.50;;
72924;SDS011;61070;50.794;7.054;2023-01-26T09:46:03;67.75;;;23.83;;
72924;SDS011;61070;50.794;7.054;2023-01-26T09:51:40;60.08;;;22.35;;
72924;SDS011;61070;50.794;7.054;2023-01-26T09:57:18;64.00;;;22.75;;
72924;SDS011;61070;50.794;7.054;2023-01-26T09:59:50;69.55;;;25.13;;
72924;SDS011;61070;50.794;7.054;2023-01-26T10:02:30;66.95;;;23.13;;
72924;SDS011;61070;50.794;7.054;2023-01-26T10:05:20;75.55;;;27.40;;
72924;SDS011;61070;50.794;7.054;2023-01-26T10:07:52;106.45;;;37.17;;
72924;SDS011;61070;50.794;7.054;2023-01-26T10:10:19;132.25;;;49.80;;
72924;SDS011;61070;50.794;7.054;2023-01-26T10:12:50;75.30;;;27.35;;
72924;SDS011;61070;50.794;7.054;2023-01-26T10:17:45;74.20;;;27.55;;
72924;SDS011;61070;50.794;7.054;2023-01-26T10:23:00;82.35;;;29.35;;
72924;SDS011;61070;50.794;7.054;2023-01-26T10:25:32;83.70;;;31.63;;
72924;SDS011;61070;50.794;7.054;2023-01-26T10:28:01;77.38;;;27.92;;
72924;SDS011;61070;50.794;7.054;2023-01-26T10:30:36;77.70;;;26.80;;
72924;SDS011;61070;50.794;7.054;2023-01-26T10:33:04;86.93;;;29.00;;
72924;SDS011;61070;50.794;7.054;2023-01-26T10:35:43;62.83;;;23.13;;
72924;SDS011;61070;50.794;7.054;2023-01-26T10:38:37;77.53;;;24.77;;
72924;SDS011;61070;50.794;7.054;2023-01-26T10:41:05;70.38;;;23.88;;
72924;SDS011;61070;50.794;7.054;2023-01-26T10:43:30;78.78;;;25.70;;
72924;SDS011;61070;50.794;7.054;2023-01-26T10:45:59;76.33;;;27.67;;
72924;SDS011;61070;50.794;7.054;2023-01-26T10:48:27;102.72;;;37.25;;
72924;SDS011;61070;50.794;7.054;2023-01-26T10:50:53;118.88;;;38.15;;
72924;SDS011;61070;50.794;7.054;2023-01-26T10:53:22;86.93;;;33.03;;
72924;SDS011;61070;50.794;7.054;2023-01-26T10:58:37;78.75;;;26.52;;
72924;SDS011;61070;50.794;7.054;2023-01-26T11:01:04;70.47;;;22.95;;
72924;SDS011;61070;50.794;7.054;2023-01-26T11:03:33;70.32;;;24.38;;
72924;SDS011;61070;50.794;7.054;2023-01-26T11:06:06;72.47;;;25.30;;
72924;SDS011;61070;50.794;7.054;2023-01-26T11:08:39;78.68;;;25.70;;
72924;SDS011;61070;50.794;7.054;2023-01-26T11:11:05;77.35;;;24.67;;
72924;SDS011;61070;50.794;7.054;2023-01-26T11:13:34;83.43;;;26.05;;
72924;SDS011;61070;50.794;7.054;2023-01-26T11:16:11;80.32;;;22.98;;
72924;SDS011;61070;50.794;7.054;2023-01-26T11:27:00;75.35;;;24.95;;
72924;SDS011;61070;50.794;7.054;2023-01-26T11:29:38;79.80;;;24.27;;
72924;SDS011;61070;50.794;7.054;2023-01-26T11:32:13;88.85;;;25.50;;
72924;SDS011;61070;50.794;7.054;2023-01-26T11:37:32;73.38;;;23.98;;
72924;SDS011;61070;50.794;7.054;2023-01-26T11:40:19;86.65;;;24.60;;
72924;SDS011;61070;50.794;7.054;2023-01-26T11:49:09;101.75;;;27.98;;
72924;SDS011;61070;50.794;7.054;2023-01-26T11:51:51;89.72;;;27.95;;
72924;SDS011;61070;50.794;7.054;2023-01-26T11:54:29;110.78;;;28.38;;
72924;SDS011;61070;50.794;7.054;2023-01-26T11:59:45;105.60;;;27.25;;
72924;SDS011;61070;50.794;7.054;2023-01-26T12:02:28;114.75;;;32.05;;
72924;SDS011;61070;50.794;7.054;2023-01-26T12:04:57;96.28;;;26.95;;
72924;SDS011;61070;50.794;7.054;2023-01-26T12:07:28;111.13;;;32.65;;
72924;SDS011;61070;50.794;7.054;2023-01-26T12:09:59;91.97;;;26.13;;
72924;SDS011;61070;50.794;7.054;2023-01-26T12:15:12;94.55;;;25.85;;
72924;SDS011;61070;50.794;7.054;2023-01-26T12:17:50;92.45;;;27.02;;
72924;SDS011;61070;50.794;7.054;2023-01-26T12:23:05;100.30;;;26.92;;
72924;SDS011;61070;50.794;7.054;2023-01-26T12:26:20;87.90;;;26.60;;
72924;SDS011;61070;50.794;7.054;2023-01-26T12:28:31;96.13;;;26.55;;
72924;SDS011;61070;50.794;7.054;2023-01-26T12:33:35;93.47;;;29.55;;
72924;SDS011;61070;50.794;7.054;2023-01-26T12:41:22;89.78;;;26.02;;
72924;SDS011;61070;50.794;7.054;2023-01-26T12:47:02;85.93;;;25.15;;
72924;SDS011;61070;50.794;7.054;2023-01-26T12:52:24;86.72;;;25.02;;
72924;SDS011;61070;50.794;7.054;2023-01-26T12:57:37;87.40;;;25.98;;
72924;SDS011;61070;50.794;7.054;2023-01-26T13:00:20;89.78;;;25.23;;
72924;SDS011;61070;50.794;7.054;2023-01-26T13:02:49;77.63;;;26.13;;
72924;SDS011;61070;50.794;7.054;2023-01-26T13:05:25;105.60;;;29.80;;
72924;SDS011;61070;50.794;7.054;2023-01-26T13:07:52;85.78;;;24.48;;
72924;SDS011;61070;50.794;7.054;2023-01-26T13:10:22;87.72;;;28.23;;
72924;SDS011;61070;50.794;7.054;2023-01-26T13:15:42;85.45;;;26.98;;
72924;SDS011;61070;50.794;7.054;2023-01-26T13:18:08;86.32;;;26.55;;
72924;SDS011;61070;50.794;7.054;2023-01-26T13:20:42;78.28;;;25.35;;
72924;SDS011;61070;50.794;7.054;2023-01-26T13:28:44;86.00;;;27.70;;
72924;SDS011;61070;50.794;7.054;2023-01-26T13:31:10;80.82;;;26.67;;
72924;SDS011;61070;50.794;7.054;2023-01-26T13:33:36;89.85;;;25.45;;
72924;SDS011;61070;50.794;7.054;2023-01-26T13:36:03;79.55;;;26.27;;
72924;SDS011;61070;50.794;7.054;2023-01-26T13:41:08;81.18;;;26.27;;
72924;SDS011;61070;50.794;7.054;2023-01-26T13:43:45;83.47;;;26.30;;
72924;SDS011;61070;50.794;7.054;2023-01-26T13:46:25;67.55;;;23.05;;
72924;SDS011;61070;50.794;7.054;2023-01-26T13:48:58;59.83;;;21.52;;
72924;SDS011;61070;50.794;7.054;2023-01-26T13:51:27;70.70;;;24.83;;
72924;SDS011;61070;50.794;7.054;2023-01-26T13:54:11;67.53;;;23.08;;
72924;SDS011;61070;50.794;7.054;2023-01-26T13:56:39;61.10;;;22.92;;
72924;SDS011;61070;50.794;7.054;2023-01-26T14:01:39;73.82;;;23.35;;
72924;SDS011;61070;50.794;7.054;2023-01-26T14:04:11;60.97;;;22.17;;
72924;SDS011;61070;50.794;7.054;2023-01-26T14:06:38;62.80;;;21.40;;
72924;SDS011;61070;50.794;7.054;2023-01-26T14:09:09;63.15;;;20.85;;
72924;SDS011;61070;50.794;7.054;2023-01-26T14:11:37;57.53;;;20.42;;
72924;SDS011;61070;50.794;7.054;2023-01-26T14:14:03;62.10;;;23.05;;
72924;SDS011;61070;50.794;7.054;2023-01-26T14:16:35;57.92;;;22.70;;
72924;SDS011;61070;50.794;7.054;2023-01-26T14:24:37;93.07;;;36.30;;
72924;SDS011;61070;50.794;7.054;2023-01-26T14:27:23;73.25;;;27.17;;
72924;SDS011;61070;50.794;7.054;2023-01-26T14:29:53;63.92;;;22.63;;
72924;SDS011;61070;50.794;7.054;2023-01-26T14:32:19;59.50;;;21.92;;
72924;SDS011;61070;50.794;7.054;2023-01-26T14:34:52;61.25;;;19.67;;
72924;SDS011;61070;50.794;7.054;2023-01-26T14:37:19;49.83;;;21.20;;
72924;SDS011;61070;50.794;7.054;2023-01-26T14:39:45;47.03;;;17.60;;
72924;SDS011;61070;50.794;7.054;2023-01-26T14:42:18;49.50;;;19.98;;
72924;SDS011;61070;50.794;7.054;2023-01-26T14:44:44;62.63;;;24.70;;
72924;SDS011;61070;50.794;7.054;2023-01-26T14:47:21;61.72;;;22.75;;
72924;SDS011;61070;50.794;7.054;2023-01-26T14:55:06;41.38;;;16.52;;
72924;SDS011;61070;50.794;7.054;2023-01-26T14:57:56;48.30;;;16.05;;
72924;SDS011;61070;50.794;7.054;2023-01-26T15:02:57;42.85;;;20.90;;
72924;SDS011;61070;50.794;7.054;2023-01-26T15:05:30;48.45;;;18.88;;
72924;SDS011;61070;50.794;7.054;2023-01-26T15:07:59;54.45;;;19.27;;
72924;SDS011;61070;50.794;7.054;2023-01-26T15:10:33;71.05;;;29.70;;
72924;SDS011;61070;50.794;7.054;2023-01-26T15:16:18;64.20;;;25.77;;
72924;SDS011;61070;50.794;7.054;2023-01-26T15:18:32;51.35;;;22.65;;
72924;SDS011;61070;50.794;7.054;2023-01-26T15:21:00;44.67;;;19.25;;
72924;SDS011;61070;50.794;7.054;2023-01-26T15:23:42;51.33;;;18.88;;
72924;SDS011;61070;50.794;7.054;2023-01-26T15:28:55;40.72;;;15.65;;
72924;SDS011;61070;50.794;7.054;2023-01-26T15:33:58;34.63;;;15.68;;
72924;SDS011;61070;50.794;7.054;2023-01-26T15:38:54;68.50;;;26.50;;
72924;SDS011;61070;50.794;7.054;2023-01-26T15:41:25;46.03;;;18.88;;
72924;SDS011;61070;50.794;7.054;2023-01-26T15:43:50;50.28;;;18.75;;
72924;SDS011;61070;50.794;7.054;2023-01-26T15:46:16;57.85;;;21.95;;
72924;SDS011;61070;50.794;7.054;2023-01-26T15:48:41;49.33;;;19.92;;
72924;SDS011;61070;50.794;7.054;2023-01-26T15:51:11;44.65;;;19.40;;
72924;SDS011;61070;50.794;7.054;2023-01-26T15:53:36;35.00;;;14.68;;
72924;SDS011;61070;50.794;7.054;2023-01-26T15:56:02;38.03;;;15.82;;
72924;SDS011;61070;50.794;7.054;2023-01-26T15:58:27;31.02;;;14.32;;
72924;SDS011;61070;50.794;7.054;2023-01-26T16:00:52;29.88;;;12.43;;
72924;SDS011;61070;50.794;7.054;2023-01-26T16:03:19;44.80;;;19.50;;
72924;SDS011;61070;50.794;7.054;2023-01-26T16:05:45;43.08;;;16.95;;
72924;SDS011;61070;50.794;7.054;2023-01-26T16:08:14;30.80;;;14.25;;
72924;SDS011;61070;50.794;7.054;2023-01-26T16:10:41;30.48;;;13.40;;
72924;SDS011;61070;50.794;7.054;2023-01-26T16:13:10;32.83;;;14.57;;
72924;SDS011;61070;50.794;7.054;2023-01-26T16:18:08;26.48;;;11.95;;